Time;durP1;ratioP1;P1;durP2;ratioP2;P2;SDS_P1;SDS_P2;PMS_P1;PMS_P2;Temp;Humidity;BMP_temperature;BMP_pressure;BME280_temperature;BME280_humidity;BME280_pressure;Samples;Min_cycle;Max_cycle;Signal;HPM_P1;HPM_P2
2023/10/07 00:00:26;;;;;;;6.70;2.00;;;17.10;99.90;;;;;;4967932;28;20473;-73
2023/10/07 00:02:52;;;;;;;22.08;3.70;;;17.10;99.90;;;;;;4983184;28;20054;-73
2023/10/07 00:05:26;;;;;;;11.38;3.05;;;17.10;99.90;;;;;;4984769;28;20059;-73
2023/10/07 00:07:55;;;;;;;8.90;2.90;;;17.10;99.90;;;;;;4968685;28;20485;-73
2023/10/07 00:10:25;;;;;;;6.20;2.70;;;17.10;99.90;;;;;;4972094;28;20038;-73
2023/10/07 00:12:52;;;;;;;6.55;2.22;;;17.10;99.90;;;;;;4968666;28;20130;-73
2023/10/07 00:15:21;;;;;;;4.55;2.80;;;17.10;99.90;;;;;;4969400;28;20096;-73
2023/10/07 00:17:47;;;;;;;11.30;2.40;;;17.10;99.90;;;;;;4971149;28;20122;-73
2023/10/07 00:20:17;;;;;;;7.68;2.30;;;17.10;99.90;;;;;;4947983;28;20050;-72
2023/10/07 00:22:53;;;;;;;11.10;2.55;;;17.10;99.90;;;;;;4971135;28;20505;-73
2023/10/07 00:25:19;;;;;;;5.82;2.15;;;17.10;99.90;;;;;;4984238;28;20125;-73
2023/10/07 00:27:48;;;;;;;11.82;2.50;;;17.10;99.90;;;;;;4983640;28;20082;-73
2023/10/07 00:30:21;;;;;;;13.25;3.25;;;17.10;99.90;;;;;;4983471;28;20638;-73
2023/10/07 00:32:50;;;;;;;9.05;2.90;;;17.00;99.90;;;;;;4983855;28;20046;-73
2023/10/07 00:35:20;;;;;;;5.45;2.00;;;17.10;99.90;;;;;;4983741;28;20053;-73
2023/10/07 00:37:46;;;;;;;6.60;2.15;;;17.00;99.90;;;;;;4967687;28;20050;-74
2023/10/07 00:40:14;;;;;;;7.45;2.30;;;17.00;99.90;;;;;;4965884;28;20051;-73
2023/10/07 00:42:47;;;;;;;7.28;2.03;;;17.00;99.90;;;;;;4973020;28;20046;-73
2023/10/07 00:45:16;;;;;;;5.95;1.67;;;17.10;99.90;;;;;;4983702;28;20043;-73
2023/10/07 00:47:49;;;;;;;5.25;2.00;;;17.10;99.90;;;;;;4998790;28;20781;-73
2023/10/07 00:50:16;;;;;;;12.32;3.22;;;17.10;99.90;;;;;;4978130;28;20137;-73
2023/10/07 00:55:27;;;;;;;6.45;2.10;;;17.10;99.90;;;;;;4964681;28;20058;-74
2023/10/07 00:58:04;;;;;;;9.70;2.58;;;17.10;99.90;;;;;;4963251;28;20125;-73
2023/10/07 01:05:53;;;;;;;5.00;1.73;;;17.10;99.90;;;;;;4973815;28;20841;-74
2023/10/07 01:08:20;;;;;;;7.07;1.73;;;17.10;99.90;;;;;;4963746;28;20050;-73
2023/10/07 01:10:54;;;;;;;5.40;1.80;;;17.10;99.90;;;;;;5032434;23;20140;-74
2023/10/07 01:13:29;;;;;;;5.63;2.17;;;17.10;99.90;;;;;;4985212;28;20057;-73
2023/10/07 01:15:55;;;;;;;7.63;2.22;;;17.10;99.90;;;;;;4990036;28;20053;-73
2023/10/07 01:18:21;;;;;;;8.57;3.13;;;17.10;99.90;;;;;;5001456;28;20502;-74
2023/10/07 01:23:23;;;;;;;9.65;2.15;;;17.10;99.90;;;;;;4996126;28;20432;-73
2023/10/07 01:25:50;;;;;;;12.55;2.40;;;17.10;99.90;;;;;;4994837;28;20615;-73
2023/10/07 01:28:20;;;;;;;5.43;2.03;;;17.10;99.90;;;;;;4998421;28;20042;-73
2023/10/07 01:31:07;;;;;;;6.25;1.80;;;17.10;99.90;;;;;;4996222;28;20056;-74
2023/10/07 01:33:39;;;;;;;5.28;1.92;;;17.10;99.90;;;;;;5001141;28;20045;-73
2023/10/07 01:36:20;;;;;;;;;;;17.10;99.90;;;;;;5001956;28;20053;-73
2023/10/07 01:38:52;;;;;;;7.30;2.17;;;17.10;99.90;;;;;;4981588;28;20304;-73
2023/10/07 01:41:27;;;;;;;5.70;2.05;;;17.00;99.90;;;;;;4979992;28;20133;-73
2023/10/07 01:43:58;;;;;;;8.18;1.90;;;17.10;99.90;;;;;;4985819;28;20039;-74
2023/10/07 01:46:29;;;;;;;4.55;1.92;;;17.10;99.90;;;;;;4982811;28;20067;-73
2023/10/07 01:49:01;;;;;;;6.57;1.90;;;17.10;99.90;;;;;;4982257;28;20085;-73
2023/10/07 01:51:28;;;;;;;9.77;2.50;;;17.10;99.90;;;;;;4981850;28;20050;-72
2023/10/07 01:54:02;;;;;;;3.33;1.83;;;17.10;99.90;;;;;;4988320;28;20278;-74
2023/10/07 01:56:32;;;;;;;5.93;1.67;;;17.10;99.90;;;;;;4995553;28;20038;-73
2023/10/07 01:59:09;;;;;;;9.50;2.53;;;17.10;99.90;;;;;;4997481;28;20446;-73
2023/10/07 02:01:35;;;;;;;8.70;2.10;;;17.10;99.90;;;;;;4991577;28;20527;-73
2023/10/07 02:04:15;;;;;;;6.68;1.77;;;17.10;99.90;;;;;;4989372;28;20050;-73
2023/10/07 02:06:50;;;;;;;7.45;1.98;;;17.10;99.90;;;;;;4997331;28;20424;-74
2023/10/07 02:09:23;;;;;;;6.38;2.20;;;17.10;99.90;;;;;;5000330;28;20052;-73
2023/10/07 02:11:50;;;;;;;9.70;2.10;;;17.10;99.90;;;;;;4992082;28;20509;-73
2023/10/07 02:14:16;;;;;;;4.45;1.70;;;17.10;99.90;;;;;;4997593;28;20711;-73
2023/10/07 02:16:41;;;;;;;4.72;2.03;;;17.10;99.90;;;;;;5001326;28;20048;-73
2023/10/07 02:19:10;;;;;;;7.30;2.33;;;17.10;99.90;;;;;;5001083;28;20054;-74
2023/10/07 02:21:36;;;;;;;4.53;1.83;;;17.10;99.90;;;;;;4981222;28;20042;-73
2023/10/07 02:24:05;;;;;;;5.53;1.55;;;17.10;99.90;;;;;;4982852;28;20045;-72
2023/10/07 02:26:32;;;;;;;6.55;2.17;;;17.10;99.90;;;;;;4981333;28;20038;-72
2023/10/07 02:29:06;;;;;;;6.07;2.10;;;17.10;99.90;;;;;;4981167;28;20488;-72
2023/10/07 02:31:42;;;;;;;6.43;2.45;;;17.00;99.90;;;;;;4981711;28;20057;-72
2023/10/07 02:34:10;;;;;;;9.02;2.50;;;17.00;99.90;;;;;;4983163;28;20885;-73
2023/10/07 02:36:51;;;;;;;4.32;2.20;;;17.10;99.90;;;;;;4981003;28;20079;-73
2023/10/07 02:39:23;;;;;;;5.47;1.67;;;17.10;99.90;;;;;;4985253;28;20046;-72
2023/10/07 02:41:49;;;;;;;6.40;1.95;;;17.10;99.90;;;;;;4998820;28;20073;-73
2023/10/07 02:44:19;;;;;;;8.30;2.35;;;17.10;99.90;;;;;;4986145;28;20507;-73
2023/10/07 02:46:52;;;;;;;4.40;1.90;;;17.10;99.90;;;;;;4981981;28;20706;-72
2023/10/07 02:49:21;;;;;;;8.65;2.97;;;17.10;99.90;;;;;;4996422;28;20062;-72
2023/10/07 02:51:57;;;;;;;8.05;2.15;;;17.10;99.90;;;;;;4981198;28;20500;-72
2023/10/07 02:54:31;;;;;;;14.35;2.72;;;17.10;99.90;;;;;;4991589;28;20073;-72
2023/10/07 02:57:11;;;;;;;3.90;1.75;;;17.10;99.90;;;;;;4994504;28;20493;-72
2023/10/07 02:59:50;;;;;;;3.83;2.03;;;17.10;99.90;;;;;;4989735;28;20045;-72
2023/10/07 03:07:41;;;;;;;3.78;2.05;;;17.10;99.90;;;;;;4990857;28;20689;-73
2023/10/07 03:10:16;;;;;;;3.57;2.10;;;17.10;99.90;;;;;;5000001;28;20046;-72
2023/10/07 03:12:56;;;;;;;10.68;2.42;;;17.10;99.90;;;;;;5000521;28;20607;-71
2023/10/07 03:18:03;;;;;;;4.50;1.52;;;17.10;99.90;;;;;;5004449;28;20129;-72
2023/10/07 03:20:31;;;;;;;6.93;2.35;;;17.10;99.90;;;;;;4994669;28;20557;-72
2023/10/07 03:23:14;;;;;;;9.20;2.33;;;17.00;99.90;;;;;;5003455;28;20070;-73
2023/10/07 03:28:16;;;;;;;6.57;1.65;;;17.10;99.90;;;;;;4984804;28;20050;-72
2023/10/07 03:30:47;;;;;;;12.02;3.00;;;17.10;99.90;;;;;;4998138;28;20076;-72
2023/10/07 03:33:15;;;;;;;12.20;2.63;;;17.10;99.90;;;;;;5004975;28;20038;-72
2023/10/07 03:36:07;;;;;;;6.97;3.13;;;17.10;99.90;;;;;;5003119;28;20033;-73
2023/10/07 03:38:30;;;;;;;10.20;2.35;;;17.00;99.90;;;;;;4997971;28;20041;-72
2023/10/07 03:40:59;;;;;;;5.32;2.35;;;17.00;99.90;;;;;;4995506;28;20052;-73
2023/10/07 03:43:26;;;;;;;5.35;2.65;;;17.00;99.90;;;;;;4987536;28;20085;-72
2023/10/07 03:45:53;;;;;;;17.20;3.38;;;17.00;99.90;;;;;;4996037;28;20216;-73
2023/10/07 03:48:30;;;;;;;7.32;2.90;;;17.00;99.90;;;;;;4994013;28;20084;-73
2023/10/07 03:51:08;;;;;;;6.82;2.55;;;17.00;99.90;;;;;;5000679;28;20125;-72
2023/10/07 03:54:00;;;;;;;6.22;1.95;;;17.00;99.90;;;;;;4995011;28;20053;-72
2023/10/07 03:56:21;;;;;;;8.70;2.25;;;17.00;99.90;;;;;;5002074;28;20052;-72
2023/10/07 03:58:47;;;;;;;5.70;1.90;;;17.00;99.90;;;;;;5000103;28;20038;-72
2023/10/07 04:01:16;;;;;;;7.47;2.10;;;17.00;99.90;;;;;;5001867;28;20093;-72
2023/10/07 04:03:50;;;;;;;7.03;1.50;;;17.00;99.90;;;;;;4985242;28;20088;-72
2023/10/07 04:06:17;;;;;;;7.65;1.90;;;17.00;99.90;;;;;;4992447;28;20045;-72
2023/10/07 04:08:52;;;;;;;11.40;2.08;;;17.00;99.90;;;;;;4993442;28;20496;-72
2023/10/07 04:11:19;;;;;;;4.85;2.08;;;17.00;99.90;;;;;;4997848;28;20832;-72
2023/10/07 04:13:46;;;;;;;8.18;2.10;;;17.00;99.90;;;;;;4984690;28;20466;-72
2023/10/07 04:16:24;;;;;;;4.78;1.95;;;17.00;99.90;;;;;;4987563;28;20185;-72
2023/10/07 04:19:06;;;;;;;8.80;1.75;;;17.00;99.90;;;;;;4984708;28;20038;-72
2023/10/07 04:21:32;;;;;;;;;;;17.00;99.90;;;;;;4984552;28;20038;-72
2023/10/07 04:24:01;;;;;;;6.80;1.67;;;17.00;99.90;;;;;;4983452;28;19945;-72
2023/10/07 04:26:26;;;;;;;6.72;2.33;;;17.00;99.90;;;;;;4983910;28;20111;-72
2023/10/07 04:28:53;;;;;;;7.35;2.30;;;17.00;99.90;;;;;;4987298;28;20093;-72
2023/10/07 04:31:29;;;;;;;6.22;2.33;;;17.00;99.90;;;;;;5000915;28;20076;-72
2023/10/07 04:33:55;;;;;;;7.60;2.05;;;17.00;99.90;;;;;;5002248;28;20424;-72
2023/10/07 04:36:32;;;;;;;4.78;2.25;;;17.00;99.90;;;;;;5001759;28;20041;-72
2023/10/07 04:38:58;;;;;;;4.80;1.92;;;17.00;99.90;;;;;;4999642;28;20049;-72
2023/10/07 04:43:59;;;;;;;9.25;1.92;;;17.00;99.90;;;;;;5002661;28;20057;-71
2023/10/07 04:46:28;;;;;;;6.40;2.08;;;17.00;99.90;;;;;;5002257;28;20076;-72
2023/10/07 04:48:56;;;;;;;6.78;1.42;;;17.00;99.90;;;;;;5002082;28;20042;-72
2023/10/07 04:51:36;;;;;;;5.25;1.70;;;17.00;99.90;;;;;;5001427;28;20136;-72
2023/10/07 04:54:02;;;;;;;5.20;1.65;;;17.00;99.90;;;;;;5001931;28;20054;-71
2023/10/07 04:56:32;;;;;;;6.82;1.55;;;17.00;99.90;;;;;;5002958;28;20496;-72
2023/10/07 04:59:17;;;;;;;10.90;3.20;;;17.00;99.90;;;;;;4985840;28;20081;-72
2023/10/07 05:01:48;;;;;;;5.07;2.33;;;16.90;99.90;;;;;;5002779;28;20046;-72
2023/10/07 05:04:15;;;;;;;7.68;1.70;;;16.90;99.90;;;;;;5001683;28;20046;-73
2023/10/07 05:06:43;;;;;;;4.72;1.30;;;16.90;99.90;;;;;;4984808;28;20069;-72
2023/10/07 05:09:09;;;;;;;4.35;2.30;;;16.90;99.90;;;;;;5001751;28;20129;-73
2023/10/07 05:11:43;;;;;;;6.03;1.45;;;16.90;99.90;;;;;;4989157;28;20089;-72
2023/10/07 05:14:10;;;;;;;9.50;1.85;;;16.90;99.90;;;;;;4984203;28;20357;-73
2023/10/07 05:16:36;;;;;;;2.60;1.30;;;16.90;99.90;;;;;;4997513;28;20038;-72
2023/10/07 05:19:04;;;;;;;6.75;1.95;;;16.90;99.90;;;;;;5002360;28;20073;-72
2023/10/07 05:21:31;;;;;;;9.30;2.30;;;16.80;99.90;;;;;;4977095;28;20050;-72
2023/10/07 05:24:02;;;;;;;9.40;2.20;;;16.90;99.90;;;;;;4993959;28;20509;-73
2023/10/07 05:26:30;;;;;;;6.38;1.98;;;16.90;99.90;;;;;;4984999;28;20034;-72
2023/10/07 05:29:01;;;;;;;3.25;2.22;;;16.90;99.90;;;;;;4991254;28;20038;-72
2023/10/07 05:31:30;;;;;;;9.02;2.67;;;16.90;99.90;;;;;;4991766;28;20044;-72
2023/10/07 05:33:59;;;;;;;3.58;1.75;;;16.80;99.90;;;;;;5001163;28;20049;-72
2023/10/07 05:36:30;;;;;;;4.78;1.58;;;16.90;99.90;;;;;;5000456;28;20140;-72
2023/10/07 05:38:56;;;;;;;7.03;1.50;;;16.80;99.90;;;;;;5000950;28;20088;-72
2023/10/07 05:41:25;;;;;;;6.88;1.63;;;16.90;99.90;;;;;;4993777;28;20639;-72
2023/10/07 05:43:51;;;;;;;12.88;2.17;;;16.90;99.90;;;;;;5000102;28;20072;-72
2023/10/07 05:46:20;;;;;;;13.48;2.45;;;16.90;99.90;;;;;;4983957;28;20725;-72
2023/10/07 05:48:47;;;;;;;7.22;2.33;;;16.90;99.90;;;;;;4983906;28;20065;-72
2023/10/07 05:51:13;;;;;;;8.35;1.77;;;16.90;99.90;;;;;;4985413;28;20124;-73
2023/10/07 05:53:42;;;;;;;3.67;1.92;;;16.90;99.90;;;;;;4983475;28;20461;-73
2023/10/07 05:56:09;;;;;;;6.97;1.48;;;16.90;99.90;;;;;;4965871;28;20049;-73
2023/10/07 05:58:38;;;;;;;4.28;1.92;;;16.90;99.90;;;;;;4993726;28;20168;-74
2023/10/07 06:01:05;;;;;;;4.95;1.92;;;16.90;99.90;;;;;;4995413;28;20038;-74
2023/10/07 06:03:32;;;;;;;3.58;1.33;;;16.90;99.90;;;;;;5000810;28;20052;-74
2023/10/07 06:05:59;;;;;;;8.27;1.73;;;16.90;99.90;;;;;;4988409;28;20730;-72
2023/10/07 06:08:28;;;;;;;6.75;2.22;;;16.90;99.90;;;;;;4993185;28;20134;-72
2023/10/07 06:10:59;;;;;;;4.65;1.70;;;16.90;99.90;;;;;;4984418;28;20062;-72
2023/10/07 06:13:28;;;;;;;10.27;2.00;;;16.90;99.90;;;;;;4981075;28;20704;-73
2023/10/07 06:15:58;;;;;;;6.97;2.35;;;16.80;99.90;;;;;;4995537;28;21756;-74
2023/10/07 06:18:25;;;;;;;5.80;2.13;;;16.80;99.90;;;;;;4994903;28;20524;-74
2023/10/07 06:20:52;;;;;;;5.03;1.50;;;16.80;99.90;;;;;;5000623;28;20064;-73
2023/10/07 06:23:25;;;;;;;4.97;2.00;;;16.90;99.90;;;;;;5000567;28;20443;-74
2023/10/07 06:25:52;;;;;;;6.38;2.72;;;16.90;99.90;;;;;;4991087;28;20054;-76
2023/10/07 06:31:28;;;;;;;4.05;1.92;;;16.90;99.90;;;;;;4985102;28;20051;-73
2023/10/07 06:33:59;;;;;;;4.95;2.22;;;16.90;99.90;;;;;;4985029;28;20113;-75
2023/10/07 06:36:26;;;;;;;3.17;1.85;;;16.90;99.90;;;;;;4998329;28;20068;-73
2023/10/07 06:38:53;;;;;;;4.75;2.55;;;16.80;99.90;;;;;;5005812;28;20049;-73
2023/10/07 06:41:19;;;;;;;8.27;2.53;;;16.90;99.90;;;;;;5002307;28;20168;-73
2023/10/07 06:43:50;;;;;;;7.97;2.30;;;16.90;99.90;;;;;;4997903;28;20042;-73
2023/10/07 06:46:20;;;;;;;5.05;1.73;;;16.90;99.90;;;;;;5003944;28;20046;-73
2023/10/07 06:48:49;;;;;;;14.63;3.83;;;16.90;99.90;;;;;;5006095;28;20060;-73
2023/10/07 06:51:15;;;;;;;6.53;1.88;;;16.90;99.90;;;;;;5002565;28;20511;-73
2023/10/07 06:53:44;;;;;;;3.67;2.22;;;16.90;99.90;;;;;;5002660;28;20046;-73
2023/10/07 06:56:24;;;;;;;7.72;2.85;;;16.90;99.90;;;;;;5005228;28;20477;-73
2023/10/07 06:58:54;;;;;;;6.40;1.75;;;16.90;99.90;;;;;;4995550;28;20042;-73
2023/10/07 07:01:35;;;;;;;8.52;1.95;;;16.90;99.90;;;;;;4995042;28;20046;-73
2023/10/07 07:04:11;;;;;;;6.00;2.35;;;16.90;99.90;;;;;;5003570;28;20069;-73
2023/10/07 07:06:44;;;;;;;4.53;1.88;;;17.00;99.90;;;;;;4989658;28;20133;-73
2023/10/07 07:12:12;;;;;;;10.55;2.53;;;16.90;99.90;;;;;;4984164;28;20077;-74
2023/10/07 07:14:51;;;;;;;11.25;2.28;;;17.00;99.90;;;;;;4989150;28;20045;-73
2023/10/07 07:17:30;;;;;;;3.50;1.40;;;17.00;99.90;;;;;;4987742;28;20050;-75
2023/10/07 07:22:46;;;;;;;6.28;1.65;;;17.00;99.90;;;;;;4992713;28;20054;-74
2023/10/07 07:25:23;;;;;;;9.68;2.30;;;17.00;99.90;;;;;;4997381;28;20046;-74
2023/10/07 07:27:51;;;;;;;9.05;1.95;;;17.10;99.90;;;;;;5000548;28;20057;-74
2023/10/07 07:30:30;;;;;;;13.05;2.53;;;17.00;99.90;;;;;;4995890;28;20038;-74
2023/10/07 07:32:59;;;;;;;5.72;1.75;;;17.10;99.90;;;;;;4985816;28;20496;-74
2023/10/07 07:35:43;;;;;;;8.38;1.90;;;17.10;99.90;;;;;;4987539;28;20034;-74
2023/10/07 07:41:08;;;;;;;7.15;2.88;;;17.10;99.90;;;;;;4987804;28;20062;-74
2023/10/07 07:43:39;;;;;;;7.50;1.70;;;17.10;99.90;;;;;;4986557;28;20054;-74
2023/10/07 07:48:38;;;;;;;4.55;2.13;;;17.10;99.90;;;;;;4984748;28;20066;-74
2023/10/07 07:51:04;;;;;;;8.27;1.88;;;17.10;99.90;;;;;;4978642;28;20064;-74
2023/10/07 07:53:32;;;;;;;7.00;2.75;;;17.10;99.90;;;;;;4985010;28;20120;-74
2023/10/07 07:55:59;;;;;;;6.82;2.42;;;17.10;99.90;;;;;;4989872;28;20121;-74
2023/10/07 07:58:25;;;;;;;6.13;2.08;;;17.20;99.90;;;;;;4999045;28;20057;-75
2023/10/07 08:00:58;;;;;;;10.18;2.38;;;17.10;99.90;;;;;;4996731;28;20497;-74
2023/10/07 08:03:27;;;;;;;9.15;2.50;;;17.20;99.90;;;;;;4993959;28;20523;-74
2023/10/07 08:05:56;;;;;;;11.82;4.18;;;17.20;99.90;;;;;;4991160;28;20039;-74
2023/10/07 08:08:29;;;;;;;6.95;2.22;;;17.10;99.90;;;;;;4994702;28;20049;-74
2023/10/07 08:10:54;;;;;;;10.77;2.88;;;17.10;99.90;;;;;;5000957;28;20053;-74
2023/10/07 08:13:27;;;;;;;11.25;2.58;;;17.20;99.90;;;;;;5001185;28;20050;-74
2023/10/07 08:15:53;;;;;;;6.25;2.05;;;17.20;99.90;;;;;;4995111;28;20045;-73
2023/10/07 08:18:28;;;;;;;6.93;2.25;;;17.20;99.90;;;;;;4996598;28;20108;-72
2023/10/07 08:21:07;;;;;;;5.15;2.28;;;17.20;99.90;;;;;;5000026;28;20075;-72
2023/10/07 08:23:47;;;;;;;7.97;2.90;;;17.20;99.90;;;;;;4999827;28;20038;-72
2023/10/07 08:26:20;;;;;;;8.85;2.55;;;17.20;99.90;;;;;;5000980;28;20356;-72
2023/10/07 08:28:47;;;;;;;4.15;1.73;;;17.30;99.90;;;;;;5001036;28;20088;-72
2023/10/07 08:36:32;;;;;;;10.43;2.38;;;17.30;99.90;;;;;;4999668;28;20511;-72
2023/10/07 08:39:05;;;;;;;11.52;2.33;;;17.30;99.90;;;;;;5002204;28;20042;-72
2023/10/07 08:41:31;;;;;;;9.05;2.08;;;17.30;99.90;;;;;;5000334;28;20049;-72
2023/10/07 08:44:14;;;;;;;10.18;3.40;;;17.30;99.90;;;;;;5000447;28;20053;-71
2023/10/07 08:46:54;;;;;;;5.22;2.53;;;17.30;99.90;;;;;;4984152;28;20046;-72
2023/10/07 08:49:27;;;;;;;6.53;2.50;;;17.30;99.90;;;;;;5000628;28;20088;-72
2023/10/07 08:51:55;;;;;;;11.00;2.97;;;17.40;99.90;;;;;;4990222;28;20070;-72
2023/10/07 08:54:26;;;;;;;6.82;2.17;;;17.40;99.90;;;;;;4981653;28;20376;-72
2023/10/07 08:57:10;;;;;;;10.00;2.67;;;17.40;99.90;;;;;;4980527;28;20060;-72
2023/10/07 08:59:37;;;;;;;7.90;2.35;;;17.40;99.90;;;;;;4981527;28;20531;-72
2023/10/07 09:02:04;;;;;;;4.35;2.22;;;17.50;99.90;;;;;;4981842;28;20050;-72
2023/10/07 09:04:33;;;;;;;11.65;4.13;;;17.50;99.90;;;;;;4998524;28;20502;-72
2023/10/07 09:07:00;;;;;;;7.78;1.88;;;17.60;99.90;;;;;;4994310;28;20106;-72
2023/10/07 09:09:37;;;;;;;11.05;3.50;;;17.60;99.90;;;;;;4996966;28;20124;-72
2023/10/07 09:12:10;;;;;;;9.65;2.38;;;17.60;99.90;;;;;;4992523;28;20215;-72
2023/10/07 09:14:40;;;;;;;6.30;2.90;;;17.60;99.90;;;;;;4999953;28;20052;-72
2023/10/07 09:17:09;;;;;;;3.90;2.50;;;17.60;99.90;;;;;;4999682;28;20131;-72
2023/10/07 09:19:36;;;;;;;8.13;2.53;;;17.60;99.90;;;;;;5000311;28;20057;-72
2023/10/07 09:22:10;;;;;;;9.10;3.58;;;17.60;99.90;;;;;;4967271;28;20230;-72
2023/10/07 09:24:41;;;;;;;4.70;2.00;;;17.60;99.90;;;;;;4999597;28;20488;-72
2023/10/07 09:27:11;;;;;;;25.13;3.73;;;17.60;99.90;;;;;;4973209;28;20042;-72
2023/10/07 09:29:37;;;;;;;10.88;2.92;;;17.60;99.90;;;;;;4996484;28;20140;-72
2023/10/07 09:32:16;;;;;;;5.90;2.78;;;17.60;99.90;;;;;;4999265;28;20042;-73
2023/10/07 09:34:42;;;;;;;7.65;1.90;;;17.60;99.90;;;;;;4999124;28;20046;-72
2023/10/07 09:37:20;;;;;;;6.97;2.40;;;17.60;99.90;;;;;;5000128;28;20380;-73
2023/10/07 09:39:54;;;;;;;9.55;2.28;;;17.60;99.90;;;;;;4999644;28;20042;-72
2023/10/07 09:42:26;;;;;;;5.75;1.75;;;17.60;99.90;;;;;;4999809;28;20056;-72
2023/10/07 09:44:54;;;;;;;;;;;17.60;99.90;;;;;;4999922;28;20454;-71
2023/10/07 09:47:21;;;;;;;5.13;1.92;;;17.60;99.90;;;;;;4999646;28;19922;-73
2023/10/07 09:49:47;;;;;;;4.03;1.88;;;17.60;99.90;;;;;;4999780;28;20073;-72
2023/10/07 09:52:28;;;;;;;9.18;2.40;;;17.60;99.90;;;;;;4998162;28;20042;-72
2023/10/07 09:55:21;;;;;;;9.10;2.03;;;17.60;99.90;;;;;;5015534;28;20061;-72
2023/10/07 09:58:11;;;;;;;6.18;2.25;;;17.70;99.90;;;;;;4996116;28;20093;-75
2023/10/07 10:01:05;;;;;;;8.40;2.38;;;17.70;99.90;;;;;;4979710;28;20472;-75
2023/10/07 10:04:21;;;;;;;8.05;2.83;;;17.70;99.90;;;;;;4962610;28;20046;-75
2023/10/07 10:07:19;;;;;;;3.50;1.92;;;17.60;99.90;;;;;;4944701;28;20141;-75
2023/10/07 10:10:05;;;;;;;4.93;2.58;;;17.70;99.90;;;;;;4983976;28;20050;-74
2023/10/07 10:12:56;;;;;;;7.65;2.70;;;17.70;99.90;;;;;;4983061;28;20086;-75
2023/10/07 10:21:00;;;;;;;6.95;2.95;;;17.70;99.90;;;;;;4982988;28;20105;-74
2023/10/07 10:23:33;;;;;;;10.43;2.97;;;17.70;99.90;;;;;;4982852;28;20127;-75
2023/10/07 10:26:02;;;;;;;5.72;2.00;;;17.80;99.90;;;;;;4984979;28;20050;-74
2023/10/07 10:28:33;;;;;;;10.73;2.67;;;17.80;99.90;;;;;;4984196;28;20049;-75
2023/10/07 10:30:59;;;;;;;7.05;2.42;;;17.80;99.90;;;;;;4982739;28;20133;-74
2023/10/07 10:33:32;;;;;;;6.03;2.50;;;17.90;99.90;;;;;;4983890;28;20345;-76
2023/10/07 10:36:01;;;;;;;10.68;2.47;;;17.90;99.90;;;;;;4984848;28;20158;-76
2023/10/07 10:38:40;;;;;;;7.30;2.75;;;17.90;99.90;;;;;;4967301;28;20389;-76
2023/10/07 10:41:08;;;;;;;7.53;1.98;;;17.90;99.90;;;;;;4983668;28;20058;-75
2023/10/07 10:43:34;;;;;;;8.75;2.30;;;17.90;99.90;;;;;;4999837;28;20044;-75
2023/10/07 10:46:05;;;;;;;13.20;2.33;;;18.00;99.90;;;;;;5002350;28;20050;-76
2023/10/07 10:48:31;;;;;;;6.70;2.22;;;17.90;99.90;;;;;;5002703;28;20492;-76
2023/10/07 10:50:57;;;;;;;5.78;2.10;;;17.90;99.90;;;;;;5001069;28;20053;-76
2023/10/07 10:53:23;;;;;;;7.95;2.47;;;18.00;99.90;;;;;;4986715;28;20187;-76
2023/10/07 10:55:50;;;;;;;13.20;2.55;;;18.00;99.90;;;;;;4998269;28;20056;-76
2023/10/07 10:58:17;;;;;;;7.13;2.40;;;18.00;99.90;;;;;;4990204;28;20052;-75
2023/10/07 11:00:51;;;;;;;6.43;3.00;;;18.00;99.90;;;;;;4982660;28;20524;-76
2023/10/07 11:03:20;;;;;;;4.75;2.38;;;18.00;99.90;;;;;;4982672;28;20039;-76
2023/10/07 11:05:48;;;;;;;5.80;2.55;;;18.10;99.90;;;;;;4981409;28;20042;-75
2023/10/07 11:08:22;;;;;;;8.75;3.58;;;18.10;99.90;;;;;;4982814;28;20139;-75
2023/10/07 11:10:52;;;;;;;10.40;2.67;;;18.10;99.90;;;;;;4985834;28;20061;-75
2023/10/07 11:13:18;;;;;;;4.80;2.17;;;18.20;99.90;;;;;;4998733;28;20139;-76
2023/10/07 11:16:12;;;;;;;8.98;2.30;;;18.20;99.90;;;;;;4984379;28;20100;-77
2023/10/07 11:18:44;;;;;;;9.32;2.40;;;18.30;99.90;;;;;;4984180;28;20046;-76
2023/10/07 11:21:18;;;;;;;15.05;3.05;;;18.30;99.90;;;;;;5000811;28;20041;-76
2023/10/07 11:23:49;;;;;;;10.55;3.17;;;18.30;99.90;;;;;;4997004;28;20072;-75
2023/10/07 11:26:17;;;;;;;7.75;2.58;;;18.30;99.90;;;;;;4983750;28;20070;-76
2023/10/07 11:28:43;;;;;;;7.20;2.60;;;18.30;99.90;;;;;;4993191;28;20115;-77
2023/10/07 11:31:09;;;;;;;8.13;2.20;;;18.30;99.90;;;;;;4995862;28;20610;-77
2023/10/07 11:33:34;;;;;;;9.45;2.40;;;18.30;99.90;;;;;;4994701;28;20054;-76
2023/10/07 11:36:02;;;;;;;6.50;1.90;;;18.30;99.90;;;;;;4982900;28;20401;-76
2023/10/07 11:38:29;;;;;;;7.75;2.30;;;18.30;99.90;;;;;;4996765;28;20038;-76
2023/10/07 11:40:55;;;;;;;7.20;2.58;;;18.40;99.90;;;;;;5004891;28;20046;-76
2023/10/07 11:43:21;;;;;;;8.45;3.97;;;18.40;99.90;;;;;;5003334;28;20061;-76
2023/10/07 11:45:48;;;;;;;12.40;2.60;;;18.40;99.90;;;;;;5004227;28;20045;-76
2023/10/07 11:48:14;;;;;;;9.32;2.53;;;18.40;99.90;;;;;;5003140;28;20053;-77
2023/10/07 11:50:39;;;;;;;6.70;3.75;;;18.30;99.90;;;;;;4996181;28;20053;-76
2023/10/07 11:53:06;;;;;;;7.95;3.08;;;18.30;99.90;;;;;;4987228;28;20046;-77
2023/10/07 11:55:32;;;;;;;7.75;2.92;;;18.30;99.90;;;;;;4999410;28;20056;-76
2023/10/07 11:58:02;;;;;;;5.03;2.63;;;18.30;99.90;;;;;;4995167;28;20042;-76
2023/10/07 12:00:37;;;;;;;4.63;2.58;;;18.30;99.90;;;;;;5001621;28;20056;-76
2023/10/07 12:03:07;;;;;;;7.32;2.58;;;18.20;99.90;;;;;;5000829;28;20322;-76
2023/10/07 12:05:38;;;;;;;7.72;2.40;;;18.20;99.90;;;;;;4984816;28;20860;-76
2023/10/07 12:08:04;;;;;;;6.07;2.03;;;18.30;99.90;;;;;;4987076;28;20657;-76
2023/10/07 12:10:39;;;;;;;5.18;2.55;;;18.30;99.90;;;;;;5011810;28;20076;-76
2023/10/07 12:13:11;;;;;;;7.72;2.55;;;18.30;99.90;;;;;;5000249;28;20559;-76
2023/10/07 12:15:40;;;;;;;4.22;1.98;;;18.20;99.90;;;;;;4989949;28;20046;-76
2023/10/07 12:18:06;;;;;;;7.07;2.10;;;18.20;99.90;;;;;;4988190;28;20495;-76
2023/10/07 12:20:32;;;;;;;8.73;2.67;;;18.20;99.90;;;;;;4990160;28;20057;-77
2023/10/07 12:22:58;;;;;;;6.85;2.38;;;18.20;99.90;;;;;;5002077;28;20038;-76
2023/10/07 12:25:23;;;;;;;7.18;2.22;;;18.20;99.90;;;;;;5002978;28;20484;-78
2023/10/07 12:27:51;;;;;;;7.13;3.42;;;18.20;99.90;;;;;;4979889;28;20049;-78
2023/10/07 12:30:23;;;;;;;6.03;2.13;;;18.20;99.90;;;;;;4988953;28;20026;-75
2023/10/07 12:32:49;;;;;;;;;;;18.30;99.90;;;;;;4989358;28;20173;-76
2023/10/07 12:35:15;;;;;;;8.10;2.15;;;18.30;99.90;;;;;;5000566;28;19929;-76
2023/10/07 12:37:46;;;;;;;8.43;3.40;;;18.30;99.90;;;;;;5002919;28;20030;-76
2023/10/07 12:40:13;;;;;;;7.22;2.88;;;18.30;99.90;;;;;;5002222;28;20054;-77
2023/10/07 12:42:41;;;;;;;6.63;2.22;;;18.30;99.90;;;;;;5001974;28;20392;-76
2023/10/07 12:45:08;;;;;;;6.38;3.05;;;18.20;99.90;;;;;;4998843;28;20050;-76
2023/10/07 12:47:34;;;;;;;6.45;3.47;;;18.30;99.90;;;;;;4985854;28;20072;-76
2023/10/07 12:50:20;;;;;;;3.13;2.22;;;18.30;99.90;;;;;;4999738;28;20052;-76
2023/10/07 12:52:47;;;;;;;7.45;3.45;;;18.20;99.90;;;;;;4982322;28;20064;-76
2023/10/07 12:55:12;;;;;;;10.90;2.53;;;18.20;99.90;;;;;;5004857;28;20262;-77
2023/10/07 12:57:41;;;;;;;5.22;2.72;;;18.20;99.90;;;;;;4987540;28;20389;-78
2023/10/07 13:00:18;;;;;;;5.70;2.13;;;18.10;99.90;;;;;;4996334;28;20923;-79
2023/10/07 13:02:47;;;;;;;6.15;2.45;;;18.10;99.90;;;;;;4976796;28;20043;-78
2023/10/07 13:05:18;;;;;;;5.53;2.40;;;18.10;99.90;;;;;;5016209;28;20053;-79
2023/10/07 13:07:51;;;;;;;8.05;2.92;;;18.00;99.90;;;;;;4994641;28;20037;-80
2023/10/07 13:10:17;;;;;;;7.40;2.10;;;18.00;99.90;;;;;;4991583;28;20074;-80
2023/10/07 13:12:46;;;;;;;6.85;2.20;;;18.10;99.90;;;;;;4991988;28;20247;-80
2023/10/07 13:15:15;;;;;;;8.85;2.90;;;18.00;99.90;;;;;;4980309;28;20046;-80
2023/10/07 13:17:46;;;;;;;5.82;2.10;;;18.00;99.90;;;;;;4984153;28;20486;-79
2023/10/07 13:20:13;;;;;;;7.55;2.60;;;18.00;99.90;;;;;;4970964;28;20456;-80
2023/10/07 13:22:39;;;;;;;11.05;2.38;;;18.00;99.90;;;;;;4992366;28;20201;-79
2023/10/07 13:25:09;;;;;;;4.78;2.35;;;17.90;99.90;;;;;;5000244;28;20041;-78
2023/10/07 13:27:39;;;;;;;8.52;2.42;;;17.90;99.90;;;;;;4999235;28;20079;-78
2023/10/07 13:30:11;;;;;;;8.50;3.45;;;17.90;99.90;;;;;;4999971;28;20112;-78
2023/10/07 13:32:41;;;;;;;6.18;1.85;;;17.90;99.90;;;;;;4994966;28;20673;-78
2023/10/07 13:35:16;;;;;;;6.57;3.20;;;17.90;99.90;;;;;;4990861;28;20586;-78
2023/10/07 13:37:46;;;;;;;6.95;3.20;;;17.90;99.90;;;;;;5000130;28;20049;-78
2023/10/07 13:40:15;;;;;;;9.38;2.75;;;17.90;99.90;;;;;;4997786;28;20124;-78
2023/10/07 13:42:49;;;;;;;8.82;4.28;;;17.90;99.90;;;;;;4999721;28;20046;-78
2023/10/07 13:45:28;;;;;;;7.60;2.60;;;17.90;99.90;;;;;;4995785;28;20068;-78
2023/10/07 13:47:55;;;;;;;6.80;3.00;;;17.80;99.90;;;;;;4999265;28;20046;-78
2023/10/07 13:50:24;;;;;;;8.15;2.95;;;17.80;99.90;;;;;;4992428;28;20133;-78
2023/10/07 13:52:59;;;;;;;8.82;2.50;;;17.80;99.90;;;;;;4965122;28;20050;-78